createdAt,value
2023-05-03T00:02:07.387Z,7.68
2023-05-03T00:04:35.640Z,7.62
2023-05-03T00:07:03.924Z,7.57
2023-05-03T00:09:35.034Z,7.56
2023-05-03T00:12:04.553Z,7.60
2023-05-03T00:14:32.759Z,7.56
2023-05-03T00:17:01.013Z,7.46
2023-05-03T00:19:33.035Z,7.42
2023-05-03T00:22:01.363Z,7.52
2023-05-03T00:24:29.551Z,7.40
2023-05-03T00:26:59.102Z,7.46
2023-05-03T00:29:27.317Z,7.44
2023-05-03T00:31:55.470Z,7.42
2023-05-03T00:34:23.831Z,7.43
2023-05-03T00:36:52.135Z,7.37
2023-05-03T00:39:20.462Z,7.25
2023-05-03T00:41:48.677Z,7.29
2023-05-03T00:44:18.289Z,7.27
2023-05-03T00:46:46.661Z,7.35
2023-05-03T00:49:15.480Z,7.34
2023-05-03T00:51:43.798Z,7.42
2023-05-03T00:54:12.451Z,7.30
2023-05-03T00:56:50.945Z,7.13
2023-05-03T00:59:21.257Z,7.19
2023-05-03T01:01:51.021Z,7.18
2023-05-03T01:04:21.571Z,7.08
2023-05-03T01:07:00.175Z,7.01
2023-05-03T01:09:36.345Z,7.09
2023-05-03T01:12:15.848Z,7.14
2023-05-03T01:14:55.667Z,7.11
2023-05-03T01:17:29.683Z,7.13
2023-05-03T01:20:02.211Z,7.14
2023-05-03T01:22:51.592Z,7.10
2023-05-03T01:25:21.589Z,7.19
2023-05-03T01:27:50.307Z,7.03
2023-05-03T01:30:18.921Z,7.01
2023-05-03T01:33:10.170Z,6.97
2023-05-03T01:35:42.718Z,6.97
2023-05-03T01:38:12.832Z,6.97
2023-05-03T01:40:48.525Z,6.93
2023-05-03T01:43:18.944Z,6.94
2023-05-03T01:45:49.628Z,6.96
2023-05-03T01:48:19.471Z,7.02
2023-05-03T01:50:47.953Z,6.97
2023-05-03T01:53:16.448Z,6.90
2023-05-03T01:55:45.995Z,6.78
2023-05-03T01:58:14.346Z,6.74
2023-05-03T02:00:42.713Z,6.74
2023-05-03T02:03:10.972Z,6.80
2023-05-03T02:05:40.046Z,6.86
2023-05-03T02:08:08.351Z,6.74
2023-05-03T02:10:36.560Z,6.74
2023-05-03T02:13:06.204Z,6.81
2023-05-03T02:15:35.151Z,6.70
2023-05-03T02:18:03.875Z,6.73
2023-05-03T02:20:36.753Z,6.66
2023-05-03T02:23:05.257Z,6.68
2023-05-03T02:25:33.534Z,6.73
2023-05-03T02:28:02.104Z,6.71
2023-05-03T02:30:32.054Z,6.73
2023-05-03T02:33:00.572Z,6.68
2023-05-03T02:35:30.110Z,6.66
2023-05-03T02:37:58.403Z,6.54
2023-05-03T02:40:27.255Z,6.61
2023-05-03T02:42:57.341Z,6.48
2023-05-03T02:45:31.291Z,6.44
2023-05-03T02:48:00.001Z,6.43
2023-05-03T02:50:28.973Z,6.43
2023-05-03T02:52:57.205Z,6.42
2023-05-03T02:55:25.619Z,6.49
2023-05-03T02:57:53.985Z,6.38
2023-05-03T03:00:22.805Z,6.43
2023-05-03T03:02:52.484Z,6.42
2023-05-03T03:05:22.082Z,6.37
2023-05-03T03:07:51.700Z,6.38
2023-05-03T03:10:20.284Z,6.28
2023-05-03T03:12:49.882Z,6.34
2023-05-03T03:15:27.734Z,6.36
2023-05-03T03:17:58.371Z,6.30
2023-05-03T03:20:27.589Z,6.34
2023-05-03T03:22:56.178Z,6.28
2023-05-03T03:25:25.122Z,6.22
2023-05-03T03:27:54.711Z,6.13
2023-05-03T03:30:22.927Z,5.97
2023-05-03T03:33:05.317Z,6.06
2023-05-03T03:35:39.694Z,6.05
2023-05-03T03:38:08.652Z,6.01
2023-05-03T03:40:41.720Z,5.97
2023-05-03T03:43:10.247Z,5.99
2023-05-03T03:45:39.389Z,6.01
2023-05-03T03:48:09.217Z,6.08
2023-05-03T03:50:38.172Z,6.06
2023-05-03T03:53:09.261Z,6.08
2023-05-03T03:55:38.968Z,5.94
2023-05-03T03:58:08.747Z,5.86
2023-05-03T04:00:38.037Z,5.83
2023-05-03T04:03:14.236Z,5.91
2023-05-03T04:05:43.092Z,5.84
2023-05-03T04:08:11.355Z,5.85
2023-05-03T04:10:41.003Z,5.90
2023-05-03T04:13:09.546Z,5.91
2023-05-03T04:15:38.095Z,5.95
2023-05-03T04:18:07.712Z,6.08
2023-05-03T04:20:40.567Z,6.06
2023-05-03T04:23:10.274Z,5.95
2023-05-03T04:25:46.613Z,5.92
2023-05-03T04:28:16.358Z,6.08
2023-05-03T04:30:48.416Z,5.94
2023-05-03T04:33:22.757Z,5.91
2023-05-03T04:35:54.417Z,6.04
2023-05-03T04:38:23.372Z,6.06
2023-05-03T04:40:51.863Z,6.13
2023-05-03T04:43:20.246Z,6.10
2023-05-03T04:45:50.360Z,6.13
2023-05-03T04:48:23.185Z,6.06
2023-05-03T04:50:52.405Z,6.13
2023-05-03T04:53:24.115Z,6.12
2023-05-03T04:56:01.418Z,6.25
2023-05-03T04:58:32.549Z,6.16
2023-05-03T05:01:01.094Z,6.12
2023-05-03T05:03:32.198Z,6.22
2023-05-03T05:06:04.509Z,6.35
2023-05-03T05:08:35.673Z,6.40
2023-05-03T05:11:06.891Z,6.46
2023-05-03T05:13:36.371Z,6.46
2023-05-03T05:16:04.765Z,6.52
2023-05-03T05:18:33.626Z,6.51
2023-05-03T05:21:04.550Z,6.63
2023-05-03T05:23:36.313Z,6.69
2023-05-03T05:26:05.336Z,6.76
2023-05-03T05:28:34.649Z,6.85
2023-05-03T05:31:02.949Z,6.89
2023-05-03T05:33:32.579Z,6.90
2023-05-03T05:36:01.065Z,6.95
2023-05-03T05:38:29.323Z,6.99
2023-05-03T05:41:03.550Z,6.97
2023-05-03T05:43:33.279Z,7.10
2023-05-03T05:46:01.554Z,7.10
2023-05-03T05:48:30.991Z,7.20
2023-05-03T05:51:00.096Z,7.27
2023-05-03T05:53:28.641Z,7.32
2023-05-03T05:56:02.483Z,7.31
2023-05-03T05:58:33.470Z,7.30
2023-05-03T06:01:04.873Z,7.27
2023-05-03T06:03:36.778Z,7.44
2023-05-03T06:06:08.133Z,7.67
2023-05-03T06:08:36.582Z,7.75
2023-05-03T06:11:07.932Z,7.70
2023-05-03T06:13:38.577Z,7.93
2023-05-03T06:16:08.769Z,7.91
2023-05-03T06:18:37.030Z,7.83
2023-05-03T06:21:05.650Z,7.91
2023-05-03T06:23:35.300Z,7.99
2023-05-03T06:26:04.823Z,8.01
2023-05-03T06:28:36.064Z,8.01
2023-05-03T06:31:04.352Z,8.08
2023-05-03T06:33:34.163Z,8.19
2023-05-03T06:36:02.540Z,8.46
2023-05-03T06:38:30.759Z,8.51
2023-05-03T06:40:58.983Z,8.58
2023-05-03T06:43:27.339Z,8.79
2023-05-03T06:46:03.336Z,8.56
2023-05-03T06:48:32.005Z,8.76
2023-05-03T06:51:00.279Z,8.85
2023-05-03T06:53:29.025Z,9.19
2023-05-03T06:55:57.437Z,8.93
2023-05-03T06:58:25.649Z,9.15
2023-05-03T07:00:54.561Z,9.27
2023-05-03T07:03:24.944Z,9.31
2023-05-03T07:05:53.316Z,9.39
2023-05-03T07:08:21.515Z,9.12
2023-05-03T07:10:49.697Z,9.17
2023-05-03T07:13:17.963Z,9.22
2023-05-03T07:15:46.684Z,9.44
2023-05-03T07:18:14.954Z,9.41
2023-05-03T07:20:44.693Z,9.40
2023-05-03T07:23:12.908Z,9.53
2023-05-03T07:25:41.219Z,9.83
2023-05-03T07:28:09.547Z,9.94
2023-05-03T07:30:37.881Z,10.10
2023-05-03T07:33:06.271Z,10.14
2023-05-03T07:35:34.632Z,10.36
2023-05-03T07:38:04.212Z,10.31
2023-05-03T07:40:33.291Z,10.31
2023-05-03T07:43:01.572Z,10.31
2023-05-03T07:45:29.910Z,10.56
2023-05-03T07:47:58.634Z,10.69
2023-05-03T07:50:27.128Z,10.82
2023-05-03T07:52:56.519Z,10.44
2023-05-03T07:55:26.765Z,10.53
2023-05-03T07:57:58.902Z,10.86
2023-05-03T08:00:27.999Z,10.94
2023-05-03T08:02:56.436Z,10.89
2023-05-03T08:05:25.080Z,10.79
2023-05-03T08:07:53.699Z,10.83
2023-05-03T08:10:22.508Z,11.03
2023-05-03T08:12:52.140Z,11.20
2023-05-03T08:15:20.688Z,11.14
2023-05-03T08:17:49.456Z,11.39
2023-05-03T08:20:17.751Z,11.49
2023-05-03T08:22:47.516Z,11.72
2023-05-03T08:25:17.601Z,11.85
2023-05-03T08:27:45.808Z,11.92
2023-05-03T08:30:15.806Z,11.57
2023-05-03T08:32:44.111Z,11.89
2023-05-03T08:35:14.053Z,12.30
2023-05-03T08:37:43.413Z,12.21
2023-05-03T08:40:14.340Z,12.06
2023-05-03T08:42:43.975Z,12.40
2023-05-03T08:45:14.786Z,12.32
2023-05-03T08:47:45.771Z,12.29
2023-05-03T08:50:15.319Z,12.44
2023-05-03T08:52:44.341Z,12.70
2023-05-03T08:55:13.151Z,12.90
2023-05-03T08:57:41.530Z,12.64
2023-05-03T09:00:12.982Z,12.55
2023-05-03T09:02:41.793Z,12.84
2023-05-03T09:05:39.090Z,12.71
2023-05-03T09:08:09.319Z,13.25
2023-05-03T09:10:40.578Z,13.24
2023-05-03T09:13:10.032Z,13.21
2023-05-03T09:15:38.455Z,12.94
2023-05-03T09:18:11.870Z,13.10
2023-05-03T09:20:42.943Z,12.93
2023-05-03T09:23:12.060Z,13.70
2023-05-03T09:25:46.936Z,13.53
2023-05-03T09:28:15.910Z,13.49
2023-05-03T09:30:44.379Z,13.85
2023-05-03T09:33:12.622Z,14.00
2023-05-03T09:35:57.692Z,14.11
2023-05-03T09:38:29.524Z,13.84
2023-05-03T09:40:58.236Z,14.06
2023-05-03T09:43:26.762Z,14.14
2023-05-03T09:46:09.367Z,14.20
2023-05-03T09:48:38.105Z,14.33
2023-05-03T09:51:08.772Z,14.14
2023-05-03T09:53:38.284Z,14.21
2023-05-03T09:56:09.050Z,14.28
2023-05-03T09:58:37.632Z,14.39
2023-05-03T10:01:06.296Z,14.86
2023-05-03T10:03:40.940Z,14.99
2023-05-03T10:06:20.797Z,14.82
2023-05-03T10:08:53.285Z,14.62
2023-05-03T10:11:25.146Z,14.79
2023-05-03T10:13:53.525Z,15.10
2023-05-03T10:16:26.300Z,14.99
2023-05-03T10:18:59.898Z,14.79
2023-05-03T10:21:42.121Z,15.42
2023-05-03T10:24:15.901Z,15.47
2023-05-03T10:26:47.492Z,15.42
2023-05-03T10:29:49.002Z,15.80
2023-05-03T10:32:33.422Z,15.06
2023-05-03T10:35:03.577Z,15.55
2023-05-03T10:37:35.975Z,15.42
2023-05-03T10:40:09.780Z,16.02
2023-05-03T10:42:39.338Z,15.92
2023-05-03T10:45:12.143Z,16.02
2023-05-03T10:47:40.913Z,16.12
2023-05-03T10:50:30.794Z,16.49
2023-05-03T10:53:00.410Z,16.35
2023-05-03T10:55:28.670Z,15.83
2023-05-03T10:57:59.030Z,15.76
2023-05-03T11:00:37.524Z,16.30
2023-05-03T11:03:14.410Z,16.33
2023-05-03T11:05:43.391Z,16.49
2023-05-03T11:08:15.005Z,16.36
2023-05-03T11:10:43.263Z,16.42
2023-05-03T11:13:12.090Z,16.59
2023-05-03T11:15:41.075Z,16.16
2023-05-03T11:18:11.454Z,16.30
2023-05-03T11:20:39.866Z,16.41
2023-05-03T11:23:08.504Z,16.81
2023-05-03T11:25:38.708Z,17.25
2023-05-03T11:28:07.059Z,17.39
2023-05-03T11:30:37.320Z,16.52
2023-05-03T11:33:05.990Z,17.10
2023-05-03T11:35:34.226Z,17.51
2023-05-03T11:38:03.032Z,17.21
2023-05-03T11:40:31.592Z,17.22
2023-05-03T11:43:01.488Z,17.50
2023-05-03T11:45:33.922Z,17.31
2023-05-03T11:48:02.395Z,17.37
2023-05-03T11:50:46.584Z,17.04
2023-05-03T11:53:15.485Z,17.30
2023-05-03T11:55:46.368Z,17.06
2023-05-03T11:58:17.689Z,17.78
2023-05-03T12:00:46.519Z,17.80
2023-05-03T12:03:19.679Z,17.31
2023-05-03T12:05:49.581Z,17.98
2023-05-03T12:08:20.803Z,17.43
2023-05-03T12:10:53.086Z,17.68
2023-05-03T12:13:31.009Z,17.89
2023-05-03T12:18:48.209Z,18.24
2023-05-03T12:23:50.475Z,17.96
2023-05-03T12:26:20.203Z,17.32
2023-05-03T12:28:50.643Z,17.40
2023-05-03T12:31:21.234Z,17.68
2023-05-03T12:34:16.437Z,17.09
2023-05-03T12:36:42.459Z,17.26
2023-05-03T12:39:13.909Z,17.59
2023-05-03T12:44:17.465Z,17.26
2023-05-03T12:46:46.133Z,17.63
2023-05-03T12:49:15.512Z,18.41
2023-05-03T12:51:49.218Z,18.57
2023-05-03T12:54:33.110Z,18.91
2023-05-03T12:57:08.204Z,18.91
2023-05-03T12:59:41.882Z,19.02
2023-05-03T13:04:57.594Z,18.64
2023-05-03T13:07:30.436Z,19.25
2023-05-03T13:12:33.568Z,19.14
2023-05-03T13:15:05.137Z,19.10
2023-05-03T13:17:34.563Z,19.54
2023-05-03T13:20:07.210Z,19.52
2023-05-03T13:22:35.657Z,18.92
2023-05-03T13:25:04.504Z,19.05
2023-05-03T13:27:33.560Z,18.77
2023-05-03T13:30:05.097Z,18.73
2023-05-03T13:32:34.321Z,18.52
2023-05-03T13:35:02.836Z,18.41
2023-05-03T13:37:31.253Z,19.32
2023-05-03T13:39:59.613Z,19.54
2023-05-03T13:42:28.048Z,20.02
2023-05-03T13:44:56.256Z,19.73
2023-05-03T13:47:27.116Z,20.20
2023-05-03T13:49:57.862Z,20.21
2023-05-03T13:52:26.122Z,19.90
2023-05-03T13:54:54.562Z,19.71
2023-05-03T13:57:23.164Z,19.45
2023-05-03T13:59:51.768Z,18.74
2023-05-03T14:02:19.961Z,18.77
2023-05-03T14:04:49.874Z,19.56
2023-05-03T14:07:18.687Z,19.23
2023-05-03T14:09:46.898Z,20.03
2023-05-03T14:12:15.242Z,19.97
2023-05-03T14:14:43.558Z,19.61
2023-05-03T14:17:12.109Z,20.25
2023-05-03T14:19:40.428Z,19.62
2023-05-03T14:22:10.112Z,19.45
2023-05-03T14:24:38.414Z,20.13
2023-05-03T14:27:06.866Z,20.32
2023-05-03T14:29:35.103Z,20.12
2023-05-03T14:32:03.363Z,20.76
2023-05-03T14:34:31.566Z,19.86
2023-05-03T14:37:00.128Z,20.64
2023-05-03T14:39:29.764Z,20.10
2023-05-03T14:41:57.979Z,21.46
2023-05-03T14:44:26.249Z,21.62
2023-05-03T14:46:58.621Z,21.47
2023-05-03T14:49:27.009Z,21.47
2023-05-03T14:51:55.553Z,21.40
2023-05-03T14:54:24.124Z,21.04
2023-05-03T14:56:54.501Z,20.32
2023-05-03T14:59:22.729Z,20.96
2023-05-03T15:01:53.695Z,22.33
2023-05-03T15:04:23.888Z,22.82
2023-05-03T15:06:52.405Z,22.70
2023-05-03T15:09:20.741Z,22.82
2023-05-03T15:11:48.956Z,23.67
2023-05-03T15:14:19.434Z,23.40
2023-05-03T15:16:49.084Z,21.51
2023-05-03T15:19:17.436Z,22.16
2023-05-03T15:21:47.503Z,22.67
2023-05-03T15:24:15.939Z,22.60
2023-05-03T15:26:44.233Z,22.62
2023-05-03T15:29:12.487Z,23.20
2023-05-03T15:31:42.809Z,22.09
2023-05-03T15:34:12.439Z,22.07
2023-05-03T15:36:41.095Z,22.49
2023-05-03T15:39:09.530Z,22.53
2023-05-03T15:41:37.829Z,21.90
2023-05-03T15:44:08.239Z,21.58
2023-05-03T15:46:36.706Z,21.75
2023-05-03T15:49:06.335Z,21.69
2023-05-03T15:51:34.618Z,22.84
2023-05-03T15:54:02.828Z,22.76
2023-05-03T15:56:31.315Z,22.24
2023-05-03T15:58:59.681Z,22.91
2023-05-03T16:01:28.113Z,23.41
2023-05-03T16:03:56.572Z,23.88
2023-05-03T16:06:26.129Z,22.55
2023-05-03T16:08:54.382Z,22.08
2023-05-03T16:11:22.588Z,21.84
2023-05-03T16:13:51.417Z,21.40
2023-05-03T16:16:20.000Z,20.73
2023-05-03T16:18:48.304Z,22.13
2023-05-03T16:21:16.999Z,22.92
2023-05-03T16:23:48.949Z,22.51
2023-05-03T16:26:19.327Z,21.85
2023-05-03T16:28:49.493Z,23.45
2023-05-03T16:31:18.382Z,20.72
2023-05-03T16:33:46.567Z,20.34
2023-05-03T16:36:14.834Z,21.51
2023-05-03T16:38:43.128Z,22.35
2023-05-03T16:41:12.740Z,22.31
2023-05-03T16:43:41.122Z,22.39
2023-05-03T16:46:09.523Z,21.44
2023-05-03T16:48:37.751Z,20.69
2023-05-03T16:51:06.163Z,21.42
2023-05-03T16:53:34.459Z,21.90
2023-05-03T16:56:02.695Z,21.20
2023-05-03T16:58:32.235Z,21.20
2023-05-03T17:01:00.545Z,20.80
2023-05-03T17:03:29.047Z,19.99
2023-05-03T17:05:57.458Z,20.63
2023-05-03T17:08:25.698Z,19.37
2023-05-03T17:11:07.620Z,19.60
2023-05-03T17:13:37.658Z,18.69
2023-05-03T17:16:08.743Z,18.61
2023-05-03T17:18:38.070Z,18.08
2023-05-03T17:21:06.524Z,17.55
2023-05-03T17:23:35.957Z,17.26
2023-05-03T17:26:05.432Z,17.26
2023-05-03T17:28:33.787Z,17.13
2023-05-03T17:31:03.797Z,16.91
2023-05-03T17:33:32.088Z,16.99
2023-05-03T17:36:02.300Z,16.76
2023-05-03T17:38:30.613Z,16.84
2023-05-03T17:41:03.700Z,16.90
2023-05-03T17:43:32.114Z,16.70
2023-05-03T17:46:10.760Z,16.64
2023-05-03T17:48:43.463Z,16.66
2023-05-03T17:51:13.531Z,16.62
2023-05-03T17:53:42.570Z,16.58
2023-05-03T17:56:15.067Z,16.49
2023-05-03T17:58:43.667Z,16.60
2023-05-03T18:01:13.659Z,16.40
2023-05-03T18:03:42.712Z,16.26
2023-05-03T18:06:13.580Z,16.32
2023-05-03T18:08:42.403Z,16.33
2023-05-03T18:11:10.758Z,16.19
2023-05-03T18:13:39.717Z,16.24
2023-05-03T18:16:08.707Z,16.17
2023-05-03T18:18:38.474Z,16.01
2023-05-03T18:21:07.021Z,15.95
2023-05-03T18:23:35.434Z,15.82
2023-05-03T18:26:03.817Z,15.86
2023-05-03T18:28:32.072Z,15.69
2023-05-03T18:31:00.369Z,15.61
2023-05-03T18:33:28.627Z,15.53
2023-05-03T18:35:59.172Z,15.48
2023-05-03T18:38:27.582Z,15.37
2023-05-03T18:40:56.019Z,15.36
2023-05-03T18:43:24.311Z,15.28
2023-05-03T18:45:53.078Z,15.19
2023-05-03T18:48:21.351Z,15.15
2023-05-03T18:50:49.768Z,15.03
2023-05-03T18:53:19.363Z,15.02
2023-05-03T18:55:47.874Z,15.01
2023-05-03T18:58:16.090Z,14.93
2023-05-03T19:00:44.407Z,14.86
2023-05-03T19:03:12.752Z,14.81
2023-05-03T19:05:40.976Z,14.68
2023-05-03T19:08:09.254Z,14.65
2023-05-03T19:10:38.804Z,14.64
2023-05-03T19:13:07.419Z,14.65
2023-05-03T19:15:35.737Z,14.56
2023-05-03T19:18:03.973Z,14.51
2023-05-03T19:20:32.330Z,14.47
2023-05-03T19:23:00.673Z,14.43
2023-05-03T19:25:28.909Z,14.34
2023-05-03T19:27:58.577Z,14.26
2023-05-03T19:30:26.892Z,14.24
2023-05-03T19:32:55.213Z,14.23
2023-05-03T19:35:23.452Z,14.09
2023-05-03T19:37:51.774Z,14.04
2023-05-03T19:40:21.534Z,14.06
2023-05-03T19:42:50.595Z,14.01
2023-05-03T19:45:20.276Z,13.95
2023-05-03T19:47:49.208Z,13.89
2023-05-03T19:50:17.523Z,13.83
2023-05-03T19:52:45.726Z,13.76
2023-05-03T19:55:14.374Z,13.68
2023-05-03T19:57:42.613Z,13.63
2023-05-03T20:00:14.145Z,13.51
2023-05-03T20:02:44.141Z,13.46
2023-05-03T20:05:12.442Z,13.52
2023-05-03T20:07:40.680Z,13.45
2023-05-03T20:10:10.001Z,13.44
2023-05-03T20:12:38.482Z,13.38
2023-05-03T20:15:08.054Z,13.29
2023-05-03T20:17:36.368Z,13.26
2023-05-03T20:20:11.151Z,13.25
2023-05-03T20:22:39.425Z,13.29
2023-05-03T20:25:08.772Z,13.19
2023-05-03T20:27:37.042Z,13.19
2023-05-03T20:30:06.567Z,13.15
2023-05-03T20:32:36.352Z,13.15
2023-05-03T20:35:05.340Z,13.04
2023-05-03T20:37:36.292Z,13.05
2023-05-03T20:40:07.419Z,13.01
2023-05-03T20:42:35.710Z,12.97
2023-05-03T20:45:04.158Z,12.96
2023-05-03T20:47:32.387Z,12.95
2023-05-03T20:50:01.799Z,12.86
2023-05-03T20:52:30.348Z,12.81
2023-05-03T20:54:59.904Z,12.81
2023-05-03T20:57:29.149Z,12.79
2023-05-03T20:59:57.374Z,12.72
2023-05-03T21:02:25.713Z,12.70
2023-05-03T21:04:54.019Z,12.65
2023-05-03T21:07:22.282Z,12.60
2023-05-03T21:09:50.463Z,12.55
2023-05-03T21:12:20.006Z,12.52
2023-05-03T21:14:48.254Z,12.52
2023-05-03T21:17:16.435Z,12.52
2023-05-03T21:19:44.724Z,12.46
2023-05-03T21:22:13.392Z,12.42
2023-05-03T21:24:41.645Z,12.32
2023-05-03T21:27:10.208Z,12.38
2023-05-03T21:29:39.973Z,12.33
2023-05-03T21:32:08.371Z,12.36
2023-05-03T21:34:36.650Z,12.32
2023-05-03T21:37:04.989Z,12.32
2023-05-03T21:39:33.409Z,12.36
2023-05-03T21:42:01.653Z,12.29
2023-05-03T21:44:29.860Z,12.28
2023-05-03T21:46:59.458Z,12.27
2023-05-03T21:49:27.796Z,12.23
2023-05-03T21:51:55.982Z,12.12
2023-05-03T21:54:24.178Z,12.10
2023-05-03T21:56:52.448Z,12.14
2023-05-03T21:59:21.356Z,12.08
2023-05-03T22:01:50.275Z,12.12
2023-05-03T22:04:19.978Z,12.07
2023-05-03T22:06:48.219Z,12.07
2023-05-03T22:09:16.434Z,12.01
2023-05-03T22:11:44.616Z,12.05
2023-05-03T22:14:12.857Z,12.02
2023-05-03T22:16:42.187Z,11.92
2023-05-03T22:19:11.971Z,11.90
2023-05-03T22:21:41.572Z,11.86
2023-05-03T22:24:09.950Z,11.92
2023-05-03T22:26:38.270Z,11.81
2023-05-03T22:29:06.651Z,11.86
2023-05-03T22:31:34.899Z,11.89
2023-05-03T22:34:03.215Z,11.79
2023-05-03T22:36:31.430Z,11.86
2023-05-03T22:39:05.323Z,11.86
2023-05-03T22:41:34.049Z,11.84
2023-05-03T22:44:02.223Z,11.79
2023-05-03T22:46:30.546Z,11.82
2023-05-03T22:48:58.867Z,11.73
2023-05-03T22:51:27.088Z,11.76
2023-05-03T22:53:55.341Z,11.71
2023-05-03T22:56:24.984Z,11.71
2023-05-03T22:58:53.211Z,11.66
2023-05-03T23:01:21.544Z,11.64
2023-05-03T23:03:49.953Z,11.66
2023-05-03T23:06:18.648Z,11.66
2023-05-03T23:08:48.208Z,11.67
2023-05-03T23:11:16.515Z,11.70
2023-05-03T23:13:46.089Z,11.64
2023-05-03T23:16:14.597Z,11.67
2023-05-03T23:18:42.895Z,11.64
2023-05-03T23:21:11.246Z,11.70
2023-05-03T23:23:39.474Z,11.64
2023-05-03T23:26:08.002Z,11.68
2023-05-03T23:28:36.563Z,11.66
2023-05-03T23:31:08.314Z,11.68
2023-05-03T23:33:36.757Z,11.62
2023-05-03T23:36:05.635Z,11.63
2023-05-03T23:38:33.924Z,11.63
2023-05-03T23:41:02.175Z,11.57
2023-05-03T23:43:30.349Z,11.57
2023-05-03T23:45:58.982Z,11.52
2023-05-03T23:48:28.640Z,11.51
2023-05-03T23:50:56.875Z,11.46
2023-05-03T23:53:25.164Z,11.47
2023-05-03T23:55:53.378Z,11.42
2023-05-03T23:58:21.810Z,11.38
